Time;durP1;ratioP1;P1;durP2;ratioP2;P2;SDS_P1;SDS_P2;PMS_P1;PMS_P2;Temp;Humidity;BMP_temperature;BMP_pressure;BME280_temperature;BME280_humidity;BME280_pressure;Samples;Min_cycle;Max_cycle;Signal;HPM_P1;HPM_P2
2023/09/24 00:01:25;;;;;;;16.50;2.47;;;;;;;;;;6027611;23;20023;-63
2023/09/24 00:04:13;;;;;;;20.50;2.58;;;;;;;;;;6030947;23;20050;-64
2023/09/24 00:07:06;;;;;;;12.60;1.70;;;;;;;;;;6028330;23;20038;-63
2023/09/24 00:09:53;;;;;;;15.38;1.92;;;;;;;;;;6028900;23;20481;-56
2023/09/24 00:12:47;;;;;;;19.63;2.17;;;;;;;;;;6028414;23;20023;-48
2023/09/24 00:15:34;;;;;;;17.95;2.83;;;;;;;;;;6027329;23;20471;-50
2023/09/24 00:18:28;;;;;;;14.80;1.90;;;;;;;;;;6030027;23;20050;-50
2023/09/24 00:21:16;;;;;;;9.33;2.20;;;;;;;;;;6030113;23;20031;-49
2023/09/24 00:24:17;;;;;;;17.48;2.70;;;;;;;;;;6081608;23;20030;-49
2023/09/24 00:27:04;;;;;;;25.27;2.55;;;;;;;;;;6084458;23;20085;-58
2023/09/24 00:29:58;;;;;;;19.73;2.30;;;;;;;;;;6083736;23;20073;-63
2023/09/24 00:32:45;;;;;;;12.25;1.75;;;;;;;;;;6086068;23;20051;-62
2023/09/24 00:35:39;;;;;;;7.40;1.88;;;;;;;;;;6085644;23;20049;-62
2023/09/24 00:38:33;;;;;;;13.30;2.22;;;;;;;;;;6082598;23;20065;-63
2023/09/24 00:41:27;;;;;;;16.77;1.83;;;;;;;;;;6085248;23;20026;-63
2023/09/24 00:44:15;;;;;;;8.77;2.10;;;;;;;;;;6085153;23;20041;-63
2023/09/24 00:47:08;;;;;;;15.57;2.55;;;;;;;;;;6086130;23;20030;-63
2023/09/24 00:50:02;;;;;;;17.95;2.13;;;;;;;;;;6086710;23;20019;-59
2023/09/24 00:52:56;;;;;;;13.88;1.67;;;;;;;;;;6085927;23;20049;-60
2023/09/24 00:55:43;;;;;;;15.82;2.13;;;;;;;;;;6085950;23;20339;-57
2023/09/24 00:58:38;;;;;;;14.93;2.63;;;;;;;;;;6082889;23;20033;-58
2023/09/24 01:01:25;;;;;;;10.65;2.15;;;;;;;;;;6083571;23;20810;-59
2023/09/24 01:04:19;;;;;;;18.75;2.72;;;;;;;;;;6085969;23;20025;-52
2023/09/24 01:06:46;;;;;;;;;;;;;;;;;;6084099;23;20118;-61
2023/09/24 01:09:42;;;;;;;20.15;1.95;;;;;;;;;;6085840;23;19976;-61
2023/09/24 01:12:29;;;;;;;11.23;2.60;;;;;;;;;;6084352;23;20034;-60
2023/09/24 01:15:23;;;;;;;22.65;3.03;;;;;;;;;;6078400;23;20022;-61
2023/09/24 01:18:08;;;;;;;14.43;2.22;;;;;;;;;;6086155;23;20414;-60
2023/09/24 01:21:02;;;;;;;9.70;2.03;;;;;;;;;;6080878;23;20468;-61
2023/09/24 01:23:59;;;;;;;13.23;2.33;;;;;;;;;;6084483;23;20026;-62
2023/09/24 01:26:53;;;;;;;11.13;1.90;;;;;;;;;;6085950;23;20022;-62
2023/09/24 01:29:40;;;;;;;11.15;1.67;;;;;;;;;;6084917;23;20098;-63
2023/09/24 01:32:35;;;;;;;10.25;2.00;;;;;;;;;;6085380;23;20125;-61
2023/09/24 01:35:26;;;;;;;14.40;2.80;;;;;;;;;;6085903;23;20118;-62
2023/09/24 01:38:16;;;;;;;17.35;1.98;;;;;;;;;;6084609;23;20487;-62
2023/09/24 01:41:10;;;;;;;13.35;2.30;;;;;;;;;;6084544;23;20027;-64
2023/09/24 01:43:59;;;;;;;16.23;2.38;;;;;;;;;;6081459;23;20026;-63
2023/09/24 01:46:52;;;;;;;11.57;2.13;;;;;;;;;;6087435;23;20320;-64
2023/09/24 01:49:39;;;;;;;11.02;1.80;;;;;;;;;;6085211;23;20476;-63
2023/09/24 01:52:34;;;;;;;15.77;1.85;;;;;;;;;;6085575;23;20025;-62
2023/09/24 01:55:21;;;;;;;13.82;1.65;;;;;;;;;;6078242;23;20023;-63
2023/09/24 01:58:14;;;;;;;13.60;1.98;;;;;;;;;;6085756;23;20073;-62
2023/09/24 02:01:02;;;;;;;11.80;1.67;;;;;;;;;;6086180;23;20468;-61
2023/09/24 02:03:59;;;;;;;16.55;1.70;;;;;;;;;;6085513;23;20027;-62
2023/09/24 02:06:42;;;;;;;14.68;1.90;;;;;;;;;;6084785;23;20019;-61
2023/09/24 02:09:36;;;;;;;10.40;1.83;;;;;;;;;;6084769;23;20026;-61
2023/09/24 02:12:25;;;;;;;14.05;2.03;;;;;;;;;;6085708;23;20026;-61
2023/09/24 02:15:20;;;;;;;8.55;1.60;;;;;;;;;;6086857;23;21056;-62
2023/09/24 02:18:15;;;;;;;12.57;1.75;;;;;;;;;;6085945;23;20022;-62
2023/09/24 02:21:01;;;;;;;11.85;2.05;;;;;;;;;;6085429;23;20032;-62
2023/09/24 02:24:02;;;;;;;14.52;2.20;;;;;;;;;;6078675;23;20026;-62
2023/09/24 02:26:49;;;;;;;12.00;1.88;;;;;;;;;;6085869;23;20023;-63
2023/09/24 02:29:43;;;;;;;16.40;1.90;;;;;;;;;;6085200;23;20234;-62
2023/09/24 02:32:32;;;;;;;12.38;1.38;;;;;;;;;;6084656;23;20082;-61
2023/09/24 02:35:25;;;;;;;12.82;2.17;;;;;;;;;;6086710;23;20105;-63
2023/09/24 02:38:12;;;;;;;9.65;2.08;;;;;;;;;;6086514;23;20026;-61
2023/09/24 02:41:06;;;;;;;10.38;1.48;;;;;;;;;;6085006;23;20392;-50
2023/09/24 02:43:54;;;;;;;6.85;1.85;;;;;;;;;;6085490;23;20033;-47
2023/09/24 02:46:47;;;;;;;7.32;1.88;;;;;;;;;;6085649;23;20034;-46
2023/09/24 02:49:34;;;;;;;12.40;1.98;;;;;;;;;;6082799;23;20057;-52
2023/09/24 02:52:28;;;;;;;6.10;1.63;;;;;;;;;;6085792;23;20457;-51
2023/09/24 02:55:16;;;;;;;13.45;2.10;;;;;;;;;;6082861;23;20401;-60
2023/09/24 02:58:10;;;;;;;12.88;2.47;;;;;;;;;;6086371;23;20101;-60
2023/09/24 03:00:57;;;;;;;9.98;1.65;;;;;;;;;;6087172;23;20034;-60
2023/09/24 03:03:51;;;;;;;14.23;1.88;;;;;;;;;;6087419;23;20023;-60
2023/09/24 03:06:39;;;;;;;13.90;2.45;;;;;;;;;;6086552;23;20089;-60
2023/09/24 03:09:32;;;;;;;12.65;1.83;;;;;;;;;;6084380;23;20161;-60
2023/09/24 03:12:19;;;;;;;16.48;2.55;;;;;;;;;;6082497;23;20023;-63
2023/09/24 03:15:13;;;;;;;8.05;1.80;;;;;;;;;;6086364;23;20026;-63
2023/09/24 03:18:01;;;;;;;13.30;2.70;;;;;;;;;;6087315;23;20026;-62
2023/09/24 03:20:55;;;;;;;12.20;2.63;;;;;;;;;;6087577;23;20085;-62
2023/09/24 03:23:48;;;;;;;15.07;2.67;;;;;;;;;;6084089;23;20480;-62
2023/09/24 03:26:42;;;;;;;25.27;2.60;;;;;;;;;;6086161;23;20473;-61
2023/09/24 03:29:29;;;;;;;13.27;2.60;;;;;;;;;;6086278;23;20065;-62
2023/09/24 03:32:23;;;;;;;10.13;2.13;;;;;;;;;;6083806;23;20030;-47
2023/09/24 03:35:11;;;;;;;12.50;2.53;;;;;;;;;;6084675;23;20022;-62
2023/09/24 03:38:05;;;;;;;19.67;1.90;;;;;;;;;;6088332;23;20022;-62
2023/09/24 03:40:52;;;;;;;22.27;2.63;;;;;;;;;;6085317;23;20056;-63
2023/09/24 03:43:47;;;;;;;17.23;2.65;;;;;;;;;;6086054;23;20022;-63
2023/09/24 03:46:34;;;;;;;12.73;2.30;;;;;;;;;;6087569;23;20045;-62
2023/09/24 03:49:27;;;;;;;13.27;2.33;;;;;;;;;;6083970;23;20065;-59
2023/09/24 03:52:14;;;;;;;9.65;2.08;;;;;;;;;;6086421;23;20026;-60
2023/09/24 03:55:08;;;;;;;13.35;2.30;;;;;;;;;;6083393;23;20026;-60
2023/09/24 03:57:55;;;;;;;18.98;2.50;;;;;;;;;;6087098;23;20798;-60
2023/09/24 04:00:49;;;;;;;12.32;2.72;;;;;;;;;;6087361;23;20036;-60
2023/09/24 04:03:37;;;;;;;16.40;2.80;;;;;;;;;;6086047;23;20026;-59
2023/09/24 04:06:30;;;;;;;13.60;2.00;;;;;;;;;;6087192;23;20025;-60
2023/09/24 04:09:18;;;;;;;18.20;2.67;;;;;;;;;;6087763;23;20057;-58
2023/09/24 04:12:15;;;;;;;14.38;2.70;;;;;;;;;;6084967;23;20022;-59
2023/09/24 04:15:03;;;;;;;14.93;2.75;;;;;;;;;;6087190;23;20026;-59
2023/09/24 04:17:59;;;;;;;19.50;2.80;;;;;;;;;;6087745;23;20348;-59
2023/09/24 04:20:45;;;;;;;15.52;2.85;;;;;;;;;;6085413;23;20061;-59
2023/09/24 04:23:46;;;;;;;10.45;2.22;;;;;;;;;;6081810;23;20465;-59
2023/09/24 04:26:34;;;;;;;12.98;2.20;;;;;;;;;;6085135;23;20023;-55
2023/09/24 04:29:27;;;;;;;15.82;2.20;;;;;;;;;;6087350;23;20030;-62
2023/09/24 04:32:15;;;;;;;12.15;2.15;;;;;;;;;;6085570;23;20029;-61
2023/09/24 04:35:10;;;;;;;14.25;2.33;;;;;;;;;;6087169;23;20488;-62
2023/09/24 04:37:56;;;;;;;6.15;1.80;;;;;;;;;;6086324;23;20057;-63
2023/09/24 04:40:50;;;;;;;12.23;2.35;;;;;;;;;;6083740;23;20030;-62
2023/09/24 04:43:37;;;;;;;13.27;2.75;;;;;;;;;;6085270;23;20033;-62
2023/09/24 04:46:31;;;;;;;10.70;2.30;;;;;;;;;;6086312;23;20026;-64
2023/09/24 04:49:18;;;;;;;15.23;2.35;;;;;;;;;;6084601;23;20030;-59
2023/09/24 04:52:12;;;;;;;10.35;2.13;;;;;;;;;;6085958;23;20469;-60
2023/09/24 04:54:59;;;;;;;15.43;2.67;;;;;;;;;;6084503;23;20194;-59
2023/09/24 04:57:53;;;;;;;11.13;2.58;;;;;;;;;;6086317;23;20061;-59
2023/09/24 05:00:41;;;;;;;8.07;1.98;;;;;;;;;;6086190;23;20058;-59
2023/09/24 05:03:38;;;;;;;16.67;2.58;;;;;;;;;;6082966;23;20030;-62
2023/09/24 05:06:27;;;;;;;8.07;1.95;;;;;;;;;;6082237;23;20021;-54
2023/09/24 05:09:20;;;;;;;10.52;1.83;;;;;;;;;;6086660;23;20022;-46
2023/09/24 05:12:06;;;;;;;11.15;2.03;;;;;;;;;;6085413;23;20518;-53
2023/09/24 05:15:00;;;;;;;11.02;1.92;;;;;;;;;;6085900;23;20022;-49
2023/09/24 05:17:47;;;;;;;17.08;2.15;;;;;;;;;;6083583;23;20729;-49
2023/09/24 05:20:41;;;;;;;18.10;2.60;;;;;;;;;;6084362;23;20717;-58
2023/09/24 05:23:41;;;;;;;9.23;2.10;;;;;;;;;;6082947;23;20030;-51
2023/09/24 05:26:35;;;;;;;11.57;2.25;;;;;;;;;;6083773;23;20023;-62
2023/09/24 05:29:23;;;;;;;6.80;1.80;;;;;;;;;;6085633;23;20026;-63
2023/09/24 05:32:23;;;;;;;13.40;2.50;;;;;;;;;;6084810;23;20126;-62
2023/09/24 05:35:17;;;;;;;8.25;2.13;;;;;;;;;;6079979;23;20436;-62
2023/09/24 05:38:11;;;;;;;9.85;2.22;;;;;;;;;;6083344;23;20019;-62
2023/09/24 05:40:59;;;;;;;15.30;1.90;;;;;;;;;;6084360;23;20031;-48
2023/09/24 05:43:54;;;;;;;14.80;2.10;;;;;;;;;;6085467;23;20018;-62
2023/09/24 05:46:40;;;;;;;16.25;2.58;;;;;;;;;;6083681;23;20111;-62
2023/09/24 05:49:34;;;;;;;13.90;2.00;;;;;;;;;;6082945;23;20086;-62
2023/09/24 05:52:21;;;;;;;13.13;1.98;;;;;;;;;;6085629;23;20027;-62
2023/09/24 05:55:15;;;;;;;8.30;1.45;;;;;;;;;;6079572;23;20027;-62
2023/09/24 05:58:04;;;;;;;8.77;1.75;;;;;;;;;;6083575;23;20870;-61
2023/09/24 06:00:58;;;;;;;9.25;1.48;;;;;;;;;;6083991;23;20038;-63
2023/09/24 06:03:32;;;;;;;8.63;1.70;;;;;;;;;;6082141;23;20023;-64
2023/09/24 06:06:26;;;;;;;9.27;1.80;;;;;;;;;;6085250;23;20053;-64
2023/09/24 06:09:13;;;;;;;18.13;1.85;;;;;;;;;;6082658;23;20026;-62
2023/09/24 06:12:07;;;;;;;5.57;1.35;;;;;;;;;;6083791;23;20749;-62
2023/09/24 06:14:54;;;;;;;17.40;1.95;;;;;;;;;;6081203;23;20462;-62
2023/09/24 06:17:49;;;;;;;16.60;2.40;;;;;;;;;;6085486;23;20033;-60
2023/09/24 06:20:38;;;;;;;12.70;1.90;;;;;;;;;;6085628;23;20081;-59
2023/09/24 06:23:39;;;;;;;13.70;1.92;;;;;;;;;;6075538;23;20027;-59
2023/09/24 06:26:35;;;;;;;10.45;1.55;;;;;;;;;;6084623;23;20524;-59
2023/09/24 06:29:35;;;;;;;9.63;1.77;;;;;;;;;;6083406;23;20226;-59
2023/09/24 06:32:21;;;;;;;12.32;2.03;;;;;;;;;;6078044;23;20540;-59
2023/09/24 06:35:15;;;;;;;11.27;2.67;;;;;;;;;;6085548;23;20023;-52
2023/09/24 06:38:02;;;;;;;18.30;2.25;;;;;;;;;;6087922;23;20101;-51
2023/09/24 06:41:03;;;;;;;12.82;1.67;;;;;;;;;;6087251;23;20476;-51
2023/09/24 06:43:50;;;;;;;9.57;1.70;;;;;;;;;;6085307;23;20022;-52
2023/09/24 06:46:44;;;;;;;6.55;1.30;;;;;;;;;;6086463;23;20023;-47
2023/09/24 06:49:11;;;;;;;13.18;1.60;;;;;;;;;;6080248;23;20022;-50
2023/09/24 06:52:05;;;;;;;5.13;1.67;;;;;;;;;;6084408;23;20026;-50
2023/09/24 06:54:52;;;;;;;6.10;1.50;;;;;;;;;;6086318;23;20078;-58
2023/09/24 06:57:46;;;;;;;10.68;1.60;;;;;;;;;;6089190;23;20022;-49
2023/09/24 07:00:40;;;;;;;3.20;1.60;;;;;;;;;;6080403;23;20033;-46
2023/09/24 07:03:28;;;;;;;3.63;1.80;;;;;;;;;;6087740;23;20078;-47
2023/09/24 07:06:21;;;;;;;8.32;2.20;;;;;;;;;;6087807;23;20566;-48
2023/09/24 07:09:09;;;;;;;9.68;1.90;;;;;;;;;;6087182;23;20030;-50
2023/09/24 07:12:04;;;;;;;8.20;1.50;;;;;;;;;;6088848;23;20018;-63
2023/09/24 07:14:50;;;;;;;4.05;1.70;;;;;;;;;;6087787;23;20027;-49
2023/09/24 07:17:44;;;;;;;10.40;1.85;;;;;;;;;;6085795;23;20093;-48
2023/09/24 07:20:31;;;;;;;9.68;1.88;;;;;;;;;;6084368;23;20101;-50
2023/09/24 07:23:39;;;;;;;9.40;1.52;;;;;;;;;;6086106;23;20035;-49
2023/09/24 07:26:32;;;;;;;8.10;1.80;;;;;;;;;;6082898;23;20030;-48
2023/09/24 07:29:26;;;;;;;5.30;1.63;;;;;;;;;;6085491;23;20026;-64
2023/09/24 07:32:14;;;;;;;10.07;2.45;;;;;;;;;;6085195;23;20146;-63
2023/09/24 07:35:09;;;;;;;6.75;1.77;;;;;;;;;;6085947;23;20344;-49
2023/09/24 07:37:55;;;;;;;8.60;2.00;;;;;;;;;;6085544;23;20026;-51
2023/09/24 07:40:49;;;;;;;6.43;1.73;;;;;;;;;;6080829;23;20042;-50
2023/09/24 07:43:36;;;;;;;5.57;2.10;;;;;;;;;;6087940;23;20405;-50
2023/09/24 07:46:29;;;;;;;6.90;2.22;;;;;;;;;;6086092;23;20022;-48
2023/09/24 07:49:16;;;;;;;6.90;2.00;;;;;;;;;;6079232;23;20253;-64
2023/09/24 07:52:12;;;;;;;8.85;1.75;;;;;;;;;;6087310;23;20081;-65
2023/09/24 07:54:58;;;;;;;7.55;2.22;;;;;;;;;;6084164;23;20026;-66
2023/09/24 07:57:53;;;;;;;6.10;2.13;;;;;;;;;;6086441;23;20023;-66
2023/09/24 08:00:41;;;;;;;10.75;2.40;;;;;;;;;;6083066;23;20030;-65
2023/09/24 08:03:34;;;;;;;8.52;2.30;;;;;;;;;;6084734;23;20635;-66
2023/09/24 08:06:21;;;;;;;10.05;2.58;;;;;;;;;;6081438;23;20438;-62
2023/09/24 08:09:15;;;;;;;11.52;2.20;;;;;;;;;;6081369;23;20026;-48
2023/09/24 08:12:02;;;;;;;7.95;2.45;;;;;;;;;;6083627;23;20049;-48
2023/09/24 08:14:56;;;;;;;6.80;2.53;;;;;;;;;;6084448;23;20030;-53
2023/09/24 08:17:43;;;;;;;9.88;2.58;;;;;;;;;;6086299;23;20022;-48
2023/09/24 08:20:37;;;;;;;15.40;2.83;;;;;;;;;;6083357;23;20038;-49
2023/09/24 08:23:24;;;;;;;13.20;2.97;;;;;;;;;;6083265;23;20073;-49
2023/09/24 08:26:25;;;;;;;13.60;3.17;;;;;;;;;;6086454;23;20027;-55
2023/09/24 08:29:12;;;;;;;13.43;2.90;;;;;;;;;;6086178;23;20018;-64
2023/09/24 08:32:06;;;;;;;9.57;3.15;;;;;;;;;;6082973;23;20022;-64
2023/09/24 08:34:53;;;;;;;7.15;2.25;;;;;;;;;;6085940;23;20023;-64
2023/09/24 08:37:47;;;;;;;8.77;3.08;;;;;;;;;;6084842;23;20018;-64
2023/09/24 08:40:41;;;;;;;9.75;2.63;;;;;;;;;;6084498;23;20030;-64
2023/09/24 08:43:35;;;;;;;10.88;3.20;;;;;;;;;;6087461;23;20022;-58
2023/09/24 08:46:30;;;;;;;10.15;3.10;;;;;;;;;;6082367;23;20504;-60
2023/09/24 08:49:19;;;;;;;11.00;2.45;;;;;;;;;;6085363;23;20334;-60
2023/09/24 08:52:13;;;;;;;8.05;2.55;;;;;;;;;;6084692;23;20064;-60
2023/09/24 08:55:01;;;;;;;10.00;3.97;;;;;;;;;;6084920;23;20101;-60
2023/09/24 08:57:55;;;;;;;9.00;2.80;;;;;;;;;;6086062;23;20086;-60
2023/09/24 09:00:43;;;;;;;15.13;3.47;;;;;;;;;;6085004;23;20033;-59
2023/09/24 09:03:36;;;;;;;10.02;3.35;;;;;;;;;;6083244;23;20360;-49
2023/09/24 09:06:32;;;;;;;10.60;3.72;;;;;;;;;;6077391;23;20030;-58
2023/09/24 09:09:06;;;;;;;12.18;3.75;;;;;;;;;;6062264;23;20034;-59
2023/09/24 09:11:42;;;;;;;16.00;3.80;;;;;;;;;;6087534;23;20026;-58
2023/09/24 09:14:41;;;;;;;7.50;3.20;;;;;;;;;;6085470;23;20054;-58
2023/09/24 09:17:40;;;;;;;12.30;3.53;;;;;;;;;;6083018;23;20427;-58
2023/09/24 09:20:43;;;;;;;10.23;3.30;;;;;;;;;;6084785;23;20022;-51
2023/09/24 09:23:46;;;;;;;11.40;3.80;;;;;;;;;;6085377;23;20027;-51
2023/09/24 09:26:40;;;;;;;14.10;4.60;;;;;;;;;;6087185;23;20201;-52
2023/09/24 09:29:34;;;;;;;14.00;4.32;;;;;;;;;;6085357;23;20670;-53
2023/09/24 09:32:21;;;;;;;14.45;4.15;;;;;;;;;;6084261;23;20023;-52
2023/09/24 09:35:16;;;;;;;12.07;4.50;;;;;;;;;;6085183;23;20070;-47
2023/09/24 09:38:12;;;;;;;15.18;4.45;;;;;;;;;;6086692;23;20023;-62
2023/09/24 09:41:06;;;;;;;14.07;4.78;;;;;;;;;;6087830;23;20026;-48
2023/09/24 09:43:53;;;;;;;12.27;5.28;;;;;;;;;;6088702;23;20022;-67
2023/09/24 09:46:47;;;;;;;18.38;5.07;;;;;;;;;;6088054;23;20018;-67
2023/09/24 09:49:43;;;;;;;19.85;5.45;;;;;;;;;;6083600;23;20026;-67
2023/09/24 09:52:36;;;;;;;15.95;4.70;;;;;;;;;;6087355;23;20089;-67
2023/09/24 09:55:29;;;;;;;16.67;4.55;;;;;;;;;;6087877;23;20082;-67
2023/09/24 09:58:16;;;;;;;17.07;5.40;;;;;;;;;;6088313;23;20026;-59
2023/09/24 10:01:10;;;;;;;18.80;4.93;;;;;;;;;;6086243;23;20082;-68
2023/09/24 10:03:58;;;;;;;15.10;5.68;;;;;;;;;;6086481;23;20492;-68
2023/09/24 10:07:12;;;;;;;18.92;5.55;;;;;;;;;;6089389;23;20053;-68
2023/09/24 10:09:59;;;;;;;15.25;6.00;;;;;;;;;;6089803;23;20030;-68
2023/09/24 10:12:54;;;;;;;13.02;4.95;;;;;;;;;;6078526;23;20026;-68
2023/09/24 10:15:43;;;;;;;16.88;5.38;;;;;;;;;;6088557;23;20034;-60
2023/09/24 10:18:53;;;;;;;19.00;5.07;;;;;;;;;;6089496;23;20449;-59
2023/09/24 10:21:40;;;;;;;15.05;5.53;;;;;;;;;;6088483;23;20034;-59
2023/09/24 10:24:43;;;;;;;14.80;4.85;;;;;;;;;;6086759;23;20019;-59
2023/09/24 10:27:57;;;;;;;12.63;5.10;;;;;;;;;;6089511;23;20090;-59
2023/09/24 10:31:03;;;;;;;18.92;5.28;;;;;;;;;;6089797;23;20053;-59
2023/09/24 10:33:57;;;;;;;19.88;5.50;;;;;;;;;;6089567;23;20050;-49
2023/09/24 10:36:44;;;;;;;13.27;4.85;;;;;;;;;;6088502;23;20022;-59
2023/09/24 10:39:57;;;;;;;14.93;4.65;;;;;;;;;;6088695;23;20030;-58
2023/09/24 10:42:45;;;;;;;12.02;5.10;;;;;;;;;;6084996;23;20023;-59
2023/09/24 10:45:38;;;;;;;13.32;4.93;;;;;;;;;;6090160;23;20142;-58
2023/09/24 10:48:26;;;;;;;16.33;6.07;;;;;;;;;;6090966;23;20030;-58
2023/09/24 10:51:21;;;;;;;13.38;5.47;;;;;;;;;;6088139;23;20421;-59
2023/09/24 10:54:15;;;;;;;17.67;5.43;;;;;;;;;;6090571;23;20078;-60
2023/09/24 10:57:09;;;;;;;14.73;5.65;;;;;;;;;;6090123;23;20410;-59
2023/09/24 10:59:56;;;;;;;15.32;5.10;;;;;;;;;;6089181;23;20026;-60
2023/09/24 11:02:54;;;;;;;17.40;5.53;;;;;;;;;;6090936;23;20404;-59
2023/09/24 11:05:48;;;;;;;15.77;4.68;;;;;;;;;;6089798;23;20029;-60
2023/09/24 11:08:36;;;;;;;18.38;5.88;;;;;;;;;;6089358;23;20029;-59
2023/09/24 11:11:29;;;;;;;20.23;4.95;;;;;;;;;;6088948;23;20030;-60
2023/09/24 11:14:25;;;;;;;12.32;5.40;;;;;;;;;;6088536;23;20097;-60
2023/09/24 11:17:31;;;;;;;14.10;5.00;;;;;;;;;;6089986;23;20029;-59
2023/09/24 11:20:20;;;;;;;14.23;4.90;;;;;;;;;;6088470;23;20522;-60
2023/09/24 11:23:13;;;;;;;18.60;5.43;;;;;;;;;;6089919;23;20038;-60
2023/09/24 11:26:06;;;;;;;16.23;5.25;;;;;;;;;;6086752;23;20026;-60
2023/09/24 11:28:59;;;;;;;16.67;5.10;;;;;;;;;;6087960;23;20073;-57
2023/09/24 11:31:47;;;;;;;12.82;5.13;;;;;;;;;;6085969;23;20406;-57
2023/09/24 11:34:41;;;;;;;11.95;4.40;;;;;;;;;;6088873;23;20026;-58
2023/09/24 11:37:28;;;;;;;11.45;4.72;;;;;;;;;;6088893;23;20019;-58
2023/09/24 11:40:23;;;;;;;11.50;4.60;;;;;;;;;;6089445;23;20030;-51
2023/09/24 11:43:15;;;;;;;12.17;4.00;;;;;;;;;;6084708;23;20473;-66
2023/09/24 11:46:21;;;;;;;11.88;4.55;;;;;;;;;;6086951;23;20068;-66
2023/09/24 11:49:05;;;;;;;10.95;4.32;;;;;;;;;;6088223;23;20093;-66
2023/09/24 11:52:06;;;;;;;13.23;4.30;;;;;;;;;;6086529;23;20090;-66
2023/09/24 11:54:53;;;;;;;12.40;4.05;;;;;;;;;;6086810;23;20030;-66
2023/09/24 11:57:47;;;;;;;13.15;3.85;;;;;;;;;;6086085;23;20030;-66
2023/09/24 12:00:35;;;;;;;12.00;4.15;;;;;;;;;;6088606;23;20029;-49
2023/09/24 12:03:29;;;;;;;15.20;4.72;;;;;;;;;;6087797;23;20050;-50
2023/09/24 12:06:17;;;;;;;14.68;5.03;;;;;;;;;;6087339;23;20030;-47
2023/09/24 12:09:10;;;;;;;7.50;3.35;;;;;;;;;;6088362;23;20065;-49
2023/09/24 12:11:57;;;;;;;9.98;3.67;;;;;;;;;;6086809;23;20031;-51
2023/09/24 12:14:51;;;;;;;8.57;3.85;;;;;;;;;;6087661;23;20034;-51
2023/09/24 12:17:38;;;;;;;12.95;4.22;;;;;;;;;;6087394;23;20536;-59
2023/09/24 12:20:33;;;;;;;18.42;4.40;;;;;;;;;;6087836;23;20102;-50
2023/09/24 12:23:20;;;;;;;11.35;4.38;;;;;;;;;;6089459;23;20044;-51
2023/09/24 12:26:21;;;;;;;13.50;4.20;;;;;;;;;;6085517;23;20022;-51
2023/09/24 12:29:08;;;;;;;10.15;4.07;;;;;;;;;;6088203;23;20091;-53
2023/09/24 12:32:02;;;;;;;10.32;4.00;;;;;;;;;;6087885;23;20544;-50
2023/09/24 12:34:50;;;;;;;10.43;3.80;;;;;;;;;;6086477;23;20022;-59
2023/09/24 12:37:43;;;;;;;10.63;4.22;;;;;;;;;;6086754;23;20094;-48
2023/09/24 12:40:30;;;;;;;11.07;4.07;;;;;;;;;;6087065;23;20460;-48
2023/09/24 12:43:24;;;;;;;11.57;4.22;;;;;;;;;;6086757;23;20026;-49
2023/09/24 12:46:11;;;;;;;11.38;4.15;;;;;;;;;;6087151;23;20409;-46
2023/09/24 12:49:06;;;;;;;9.73;3.97;;;;;;;;;;6087806;23;20097;-51
2023/09/24 12:51:53;;;;;;;13.35;3.78;;;;;;;;;;6086900;23;20068;-48
2023/09/24 12:54:46;;;;;;;14.80;4.30;;;;;;;;;;6087796;23;20034;-60
2023/09/24 12:57:34;;;;;;;12.65;4.50;;;;;;;;;;6086068;23;20078;-45
2023/09/24 13:00:28;;;;;;;9.02;3.90;;;;;;;;;;6085473;23;20030;-47
2023/09/24 13:03:16;;;;;;;10.98;3.83;;;;;;;;;;6087190;23;20026;-47
2023/09/24 13:06:22;;;;;;;12.65;4.32;;;;;;;;;;6088208;23;20022;-48
2023/09/24 13:09:20;;;;;;;8.90;3.67;;;;;;;;;;6087052;23;20555;-49
2023/09/24 13:12:06;;;;;;;9.07;4.30;;;;;;;;;;6085721;23;20026;-47
2023/09/24 13:15:00;;;;;;;10.20;4.47;;;;;;;;;;6086506;23;20022;-61
2023/09/24 13:17:47;;;;;;;10.23;4.45;;;;;;;;;;6087202;23;20022;-59
2023/09/24 13:20:41;;;;;;;12.68;4.25;;;;;;;;;;6086655;23;20036;-59
2023/09/24 13:23:08;;;;;;;10.25;4.60;;;;;;;;;;6088746;23;20023;-59
2023/09/24 13:25:55;;;;;;;8.80;4.43;;;;;;;;;;6085772;23;20090;-60
2023/09/24 13:28:32;;;;;;;12.98;4.00;;;;;;;;;;6083104;23;20062;-58
2023/09/24 13:31:06;;;;;;;9.68;4.13;;;;;;;;;;6085764;23;20030;-58
2023/09/24 13:33:53;;;;;;;10.25;3.67;;;;;;;;;;6085988;23;20028;-60
2023/09/24 13:36:47;;;;;;;9.82;3.80;;;;;;;;;;6086544;23;20026;-59
2023/09/24 13:39:41;;;;;;;8.02;3.20;;;;;;;;;;6086948;23;20454;-59
2023/09/24 13:42:28;;;;;;;9.00;3.45;;;;;;;;;;6084873;23;20085;-59
2023/09/24 13:45:23;;;;;;;9.95;3.50;;;;;;;;;;6085346;23;20033;-59
2023/09/24 13:47:51;;;;;;;7.25;3.28;;;;;;;;;;6084871;23;20026;-60
2023/09/24 13:50:48;;;;;;;9.27;3.65;;;;;;;;;;6084356;23;20025;-47
2023/09/24 13:53:35;;;;;;;10.07;3.58;;;;;;;;;;6083202;23;20334;-49
2023/09/24 13:56:29;;;;;;;12.48;3.63;;;;;;;;;;6082722;23;20754;-48
2023/09/24 13:59:17;;;;;;;7.63;3.50;;;;;;;;;;6071938;23;20050;-49
2023/09/24 14:02:10;;;;;;;12.48;3.40;;;;;;;;;;6081826;23;20032;-50
2023/09/24 14:04:58;;;;;;;12.43;4.10;;;;;;;;;;6079392;23;20058;-48
2023/09/24 14:12:16;;;;;;;13.85;3.95;;;;;;;;;;6083474;23;20026;-49
2023/09/24 14:13:36;;;;;;;10.20;3.70;;;;;;;;;;6058451;23;20034;-64
2023/09/24 14:16:31;;;;;;;13.00;3.95;;;;;;;;;;6086525;23;20022;-66
2023/09/24 14:19:17;;;;;;;11.68;4.60;;;;;;;;;;6089081;23;20022;-65
2023/09/24 14:22:11;;;;;;;13.13;4.22;;;;;;;;;;6088215;23;20027;-65
2023/09/24 14:25:19;;;;;;;11.93;4.00;;;;;;;;;;6084154;23;20093;-53
2023/09/24 14:28:13;;;;;;;11.80;3.90;;;;;;;;;;6086341;23;20473;-59
2023/09/24 14:31:03;;;;;;;14.27;4.65;;;;;;;;;;6087305;23;20030;-59
2023/09/24 14:33:57;;;;;;;16.65;4.70;;;;;;;;;;6089293;23;20024;-59
2023/09/24 14:36:51;;;;;;;12.15;3.75;;;;;;;;;;6087611;23;20022;-59
2023/09/24 14:39:45;;;;;;;12.70;4.47;;;;;;;;;;6083127;23;20093;-59
2023/09/24 14:42:32;;;;;;;9.00;4.15;;;;;;;;;;6085936;23;20030;-60
2023/09/24 14:45:26;;;;;;;12.73;3.90;;;;;;;;;;6088458;23;20027;-46
2023/09/24 14:48:20;;;;;;;13.90;3.72;;;;;;;;;;6085882;23;20022;-53
2023/09/24 14:51:18;;;;;;;9.77;4.03;;;;;;;;;;6086552;23;20026;-47
2023/09/24 14:54:05;;;;;;;10.90;3.67;;;;;;;;;;6085751;23;20037;-49
2023/09/24 14:56:59;;;;;;;10.88;3.75;;;;;;;;;;6083683;23;20022;-48
2023/09/24 14:59:46;;;;;;;10.35;3.38;;;;;;;;;;6088720;23;20026;-53
2023/09/24 15:02:40;;;;;;;9.73;3.70;;;;;;;;;;6086522;23;20022;-56
2023/09/24 15:05:29;;;;;;;10.05;3.35;;;;;;;;;;6088366;23;20730;-60
2023/09/24 15:08:23;;;;;;;13.88;3.33;;;;;;;;;;6089498;23;20019;-60
2023/09/24 15:11:09;;;;;;;7.25;3.30;;;;;;;;;;6088108;23;20038;-60
2023/09/24 15:14:03;;;;;;;8.65;2.60;;;;;;;;;;6088488;23;20094;-60
2023/09/24 15:16:51;;;;;;;10.02;3.22;;;;;;;;;;6088792;23;20027;-60
2023/09/24 15:19:45;;;;;;;11.82;3.15;;;;;;;;;;6089929;23;20022;-48
2023/09/24 15:22:12;;;;;;;;;;;;;;;;;;6090722;23;20026;-49
2023/09/24 15:25:20;;;;;;;10.75;3.05;;;;;;;;;;6085360;23;20467;-47
2023/09/24 15:28:14;;;;;;;12.45;2.78;;;;;;;;;;6088689;23;20081;-46
2023/09/24 15:31:08;;;;;;;19.95;2.92;;;;;;;;;;6089991;23;20065;-47
2023/09/24 15:34:02;;;;;;;6.57;2.85;;;;;;;;;;6090160;23;20026;-50
2023/09/24 15:36:56;;;;;;;12.05;3.10;;;;;;;;;;6086487;23;20342;-51
2023/09/24 15:39:50;;;;;;;10.52;2.90;;;;;;;;;;6086434;23;20410;-52
2023/09/24 15:42:44;;;;;;;10.57;3.08;;;;;;;;;;6089574;23;20349;-61
2023/09/24 15:45:31;;;;;;;9.02;2.33;;;;;;;;;;6089523;23;20026;-60
2023/09/24 15:48:25;;;;;;;10.68;2.90;;;;;;;;;;6089248;23;20037;-60
2023/09/24 15:51:16;;;;;;;9.45;2.63;;;;;;;;;;6089161;23;20219;-59
2023/09/24 15:54:10;;;;;;;9.82;3.08;;;;;;;;;;6087871;23;20026;-59
2023/09/24 15:56:58;;;;;;;10.23;2.55;;;;;;;;;;6087225;23;20026;-60
2023/09/24 15:59:52;;;;;;;7.22;2.90;;;;;;;;;;6089604;23;20033;-49
2023/09/24 16:02:39;;;;;;;7.30;2.38;;;;;;;;;;6088269;23;20028;-47
2023/09/24 16:05:34;;;;;;;9.25;2.28;;;;;;;;;;6089077;23;20516;-46
2023/09/24 16:08:21;;;;;;;7.30;2.33;;;;;;;;;;6084912;23;20027;-49
2023/09/24 16:11:17;;;;;;;7.22;2.17;;;;;;;;;;6089601;23;20029;-51
2023/09/24 16:14:10;;;;;;;5.75;2.30;;;;;;;;;;6089198;23;20136;-65
2023/09/24 16:17:03;;;;;;;19.35;5.05;;;;;;;;;;6087015;23;20516;-58
2023/09/24 16:19:50;;;;;;;10.18;3.45;;;;;;;;;;6084634;23;20023;-58
2023/09/24 16:22:51;;;;;;;11.98;4.90;;;;;;;;;;6087355;23;20019;-58
2023/09/24 16:25:45;;;;;;;8.48;3.75;;;;;;;;;;6086008;23;20034;-58
2023/09/24 16:28:39;;;;;;;8.57;3.22;;;;;;;;;;6088217;23;20620;-59
2023/09/24 16:31:29;;;;;;;8.18;2.60;;;;;;;;;;6086797;23;20026;-59
2023/09/24 16:34:02;;;;;;;8.30;2.83;;;;;;;;;;6087298;23;20030;-58
2023/09/24 16:36:33;;;;;;;12.80;2.95;;;;;;;;;;6086911;23;20030;-65
2023/09/24 16:39:23;;;;;;;10.02;2.58;;;;;;;;;;6087979;23;20504;-66
2023/09/24 16:42:10;;;;;;;6.97;2.72;;;;;;;;;;6088405;23;20397;-66
2023/09/24 16:45:05;;;;;;;7.65;2.35;;;;;;;;;;6088468;23;20069;-65
2023/09/24 16:47:52;;;;;;;10.32;2.80;;;;;;;;;;6086303;23;20077;-66
2023/09/24 16:50:48;;;;;;;9.38;3.05;;;;;;;;;;6083787;23;20030;-60
2023/09/24 16:53:35;;;;;;;9.55;2.90;;;;;;;;;;6078904;23;20034;-59
2023/09/24 16:56:29;;;;;;;9.98;2.85;;;;;;;;;;6083049;23;20449;-60
2023/09/24 16:59:16;;;;;;;6.72;2.53;;;;;;;;;;6088744;23;20539;-59